Time;durP1;ratioP1;P1;durP2;ratioP2;P2;SDS_P1;SDS_P2;PMS_P1;PMS_P2;Temp;Humidity;BMP_temperature;BMP_pressure;BME280_temperature;BME280_humidity;BME280_pressure;Samples;Min_cycle;Max_cycle;Signal;HPM_P1;HPM_P2
2021/09/04 00:00:57;;;;;;;8.73;6.75;;;;;;;14.04;97.46;100240.59;6278712;28;20040;-84
2021/09/04 00:03:58;;;;;;;12.18;6.78;;;;;;;14.11;96.50;100233.94;6262129;28;20041;-83
2021/09/04 00:06:58;;;;;;;10.10;6.90;;;;;;;14.07;97.73;100240.34;6278946;28;20400;-83
2021/09/04 00:10:00;;;;;;;11.32;6.85;;;;;;;14.10;97.03;100245.41;6278521;28;20041;-83
2021/09/04 00:13:00;;;;;;;9.52;6.53;;;;;;;14.17;96.20;100237.09;6246016;28;20036;-84
2021/09/04 00:16:01;;;;;;;11.27;6.72;;;;;;;14.13;96.22;100235.63;6262342;28;20395;-83
2021/09/04 00:19:02;;;;;;;9.13;6.53;;;;;;;14.20;96.37;100228.97;6245306;28;20086;-83
2021/09/04 00:22:03;;;;;;;8.65;6.30;;;;;;;14.24;96.08;100231.25;6278413;28;20683;-83
2021/09/04 00:25:05;;;;;;;9.27;6.50;;;;;;;14.22;96.39;100242.81;6245756;28;20129;-83
2021/09/04 00:28:06;;;;;;;10.90;6.63;;;;;;;14.19;96.78;100233.38;6278549;28;20048;-83
2021/09/04 00:31:07;;;;;;;10.60;6.40;;;;;;;14.21;96.56;100235.91;6277961;28;20407;-83
2021/09/04 00:34:08;;;;;;;10.15;6.32;;;;;;;14.25;96.45;100238.19;6260910;28;20045;-83
2021/09/04 00:37:09;;;;;;;13.27;6.43;;;;;;;14.23;96.28;100242.72;6260839;28;20051;-83
2021/09/04 00:40:10;;;;;;;9.57;6.78;;;;;;;14.27;97.92;100251.22;6277638;28;20063;-83
2021/09/04 00:43:11;;;;;;;9.73;6.70;;;;;;;14.20;99.09;100244.72;6277732;28;20045;-83
2021/09/04 00:46:12;;;;;;;10.77;6.50;;;;;;;14.27;98.49;100238.09;6244848;28;20127;-83
2021/09/04 00:49:14;;;;;;;10.25;7.05;;;;;;;14.28;97.78;100230.06;6244714;28;20055;-83
2021/09/04 00:52:16;;;;;;;12.18;7.22;;;;;;;14.27;97.96;100235.47;6277605;28;20399;-83
2021/09/04 00:55:17;;;;;;;12.70;6.65;;;;;;;14.24;98.00;100233.88;6245016;28;20064;-83
2021/09/04 00:58:18;;;;;;;11.68;6.38;;;;;;;14.32;97.11;100236.78;6277467;28;20543;-83
2021/09/04 01:01:19;;;;;;;11.40;6.75;;;;;;;14.26;97.33;100242.47;6244633;28;20102;-83
2021/09/04 01:04:21;;;;;;;11.35;6.43;;;;;;;14.34;96.96;100251.59;6260906;28;20123;-83
2021/09/04 01:07:22;;;;;;;11.50;6.60;;;;;;;14.40;96.75;100254.59;6260934;28;20205;-84
2021/09/04 01:10:26;;;;;;;10.25;6.95;;;;;;;14.30;97.97;100257.03;6260888;28;20447;-83
2021/09/04 01:13:26;;;;;;;12.65;7.10;;;;;;;14.23;98.16;100247.97;6277399;28;20074;-82
2021/09/04 01:16:38;;;;;;;13.07;7.22;;;;;;;14.21;99.11;100255.09;6244406;28;20037;-83
2021/09/04 01:19:39;;;;;;;12.20;7.27;;;;;;;14.19;100.00;100248.31;6277253;28;20070;-84
2021/09/04 01:22:39;;;;;;;11.02;7.32;;;;;;;14.20;100.00;100253.41;6244378;28;20670;-83
2021/09/04 01:25:43;;;;;;;8.95;6.40;;;;;;;14.15;100.00;100252.94;6277391;28;20036;-83
2021/09/04 01:28:44;;;;;;;12.45;8.35;;;;;;;14.14;100.00;100248.63;6244344;28;20087;-83
2021/09/04 01:31:45;;;;;;;9.68;7.07;;;;;;;14.17;100.00;100243.16;6260667;28;20045;-82
2021/09/04 01:34:46;;;;;;;9.48;7.05;;;;;;;14.13;100.00;100240.88;6260503;28;20033;-83
2021/09/04 01:37:47;;;;;;;14.48;7.18;;;;;;;14.24;100.00;100244.38;6260591;28;20477;-82
2021/09/04 01:40:47;;;;;;;11.15;6.82;;;;;;;14.17;100.00;100244.94;6244103;28;20529;-84
2021/09/04 01:43:49;;;;;;;13.27;6.93;;;;;;;14.19;100.00;100235.19;6260687;28;20037;-83
2021/09/04 01:46:50;;;;;;;15.48;7.30;;;;;;;14.10;100.00;100234.91;6246159;28;20043;-83
2021/09/04 01:49:51;;;;;;;10.43;6.65;;;;;;;14.14;100.00;100235.50;6265399;28;20045;-83
2021/09/04 01:52:52;;;;;;;14.15;7.57;;;;;;;14.12;100.00;100229.53;6281680;28;20173;-83
2021/09/04 01:55:52;;;;;;;10.80;6.93;;;;;;;14.10;100.00;100220.94;6281693;28;20041;-83
2021/09/04 01:58:53;;;;;;;10.82;7.30;;;;;;;14.09;100.00;100232.38;6249006;28;20119;-82
2021/09/04 02:01:54;;;;;;;10.70;6.97;;;;;;;14.07;100.00;100221.16;6281869;28;20040;-82
2021/09/04 02:04:55;;;;;;;12.88;7.07;;;;;;;14.08;100.00;100221.06;6281629;28;20487;-83
2021/09/04 02:07:55;;;;;;;16.20;7.75;;;;;;;14.00;100.00;100222.53;6265289;28;20044;-83
2021/09/04 02:10:56;;;;;;;11.85;7.28;;;;;;;13.96;100.00;100216.69;6248642;28;20115;-82
2021/09/04 02:13:57;;;;;;;11.15;7.15;;;;;;;13.90;100.00;100214.53;6264855;28;20117;-82
2021/09/04 02:16:58;;;;;;;13.13;6.95;;;;;;;13.86;100.00;100210.44;6281390;28;20107;-83
2021/09/04 02:19:59;;;;;;;11.13;7.03;;;;;;;13.90;100.00;100214.53;6264651;28;20045;-82
2021/09/04 02:23:00;;;;;;;11.27;7.07;;;;;;;13.88;100.00;100208.56;6264475;28;20113;-83
2021/09/04 02:26:00;;;;;;;13.00;7.55;;;;;;;13.83;100.00;100216.72;6264510;28;20384;-82
2021/09/04 02:29:01;;;;;;;12.23;7.03;;;;;;;13.79;100.00;100209.19;6280975;28;20476;-82
2021/09/04 02:32:02;;;;;;;10.35;6.50;;;;;;;13.69;100.00;100207.25;6281040;28;20044;-82
2021/09/04 02:35:05;;;;;;;8.80;6.57;;;;;;;13.69;100.00;100209.00;6231738;28;20052;-82
2021/09/04 02:38:06;;;;;;;11.07;6.65;;;;;;;13.67;100.00;100200.41;6298412;28;20602;-82
2021/09/04 02:41:07;;;;;;;13.27;7.32;;;;;;;13.57;100.00;100186.28;6263998;28;20053;-83
2021/09/04 02:44:08;;;;;;;14.98;6.93;;;;;;;13.50;100.00;100184.09;6264115;28;20043;-83
2021/09/04 02:47:09;;;;;;;10.70;6.80;;;;;;;13.52;100.00;100185.78;6247670;28;20532;-83
2021/09/04 02:50:10;;;;;;;12.38;6.88;;;;;;;13.60;100.00;100188.72;6264279;28;20067;-83
2021/09/04 02:53:11;;;;;;;9.55;6.95;;;;;;;13.68;100.00;100187.22;6247633;28;20041;-83
2021/09/04 02:56:12;;;;;;;13.18;6.80;;;;;;;13.79;100.00;100182.97;6263972;28;20086;-83
2021/09/04 02:59:13;;;;;;;11.02;6.57;;;;;;;13.75;100.00;100178.91;6279369;28;21093;-82
2021/09/04 03:02:14;;;;;;;12.85;6.78;;;;;;;13.74;100.00;100172.81;6298141;28;20044;-82
2021/09/04 03:05:15;;;;;;;11.53;6.50;;;;;;;13.71;100.00;100175.66;6280269;28;20044;-83
2021/09/04 03:08:15;;;;;;;9.45;6.63;;;;;;;13.67;100.00;100182.94;6263788;28;20639;-83
2021/09/04 03:11:16;;;;;;;10.13;6.70;;;;;;;13.68;100.00;100176.72;6263577;28;20040;-83
2021/09/04 03:14:17;;;;;;;8.65;6.22;;;;;;;13.63;100.00;100178.00;6230534;28;20056;-83
2021/09/04 03:17:18;;;;;;;11.40;6.38;;;;;;;13.47;100.00;100166.00;6263760;28;20041;-83
2021/09/04 03:20:18;;;;;;;9.25;6.28;;;;;;;13.59;100.00;100159.03;6246833;28;20041;-83
2021/09/04 03:23:19;;;;;;;11.77;6.35;;;;;;;13.55;100.00;100165.44;6246770;28;20037;-82
2021/09/04 03:26:20;;;;;;;9.00;6.22;;;;;;;13.53;100.00;100153.38;6263401;28;20062;-84
2021/09/04 03:29:21;;;;;;;10.73;6.43;;;;;;;13.49;100.00;100158.84;6279586;28;20095;-83
2021/09/04 03:32:21;;;;;;;9.48;6.10;;;;;;;13.44;100.00;100145.22;6263256;28;20143;-83
2021/09/04 03:35:22;;;;;;;10.70;6.70;;;;;;;13.40;100.00;100142.94;6263040;28;20043;-83
2021/09/04 03:38:23;;;;;;;10.00;6.38;;;;;;;13.41;100.00;100144.63;6262912;28;20047;-83
2021/09/04 03:41:23;;;;;;;11.65;6.82;;;;;;;13.38;100.00;100150.91;6246369;28;20491;-83
2021/09/04 03:44:24;;;;;;;11.25;6.70;;;;;;;13.34;100.00;100148.63;6295698;28;20403;-83
2021/09/04 03:47:26;;;;;;;9.70;6.45;;;;;;;13.39;100.00;100157.00;6262597;28;20068;-84
2021/09/04 03:50:27;;;;;;;11.35;6.90;;;;;;;13.37;100.00;100164.16;6262624;28;20040;-83
2021/09/04 03:53:27;;;;;;;9.38;6.47;;;;;;;13.32;100.00;100163.63;6278759;28;20560;-82
2021/09/04 03:56:28;;;;;;;11.50;6.05;;;;;;;13.27;100.00;100166.53;6262312;28;20040;-83
2021/09/04 03:59:29;;;;;;;12.85;5.70;;;;;;;13.18;100.00;100168.03;6296426;28;20048;-84
2021/09/04 04:02:32;;;;;;;10.75;6.40;;;;;;;13.14;100.00;100171.81;6279009;28;20044;-84
2021/09/04 04:05:32;;;;;;;8.57;5.82;;;;;;;13.15;100.00;100173.47;6261948;28;20044;-84
2021/09/04 04:08:33;;;;;;;10.77;6.10;;;;;;;13.12;100.00;100178.09;6278319;28;20091;-84
2021/09/04 04:11:34;;;;;;;9.70;6.38;;;;;;;13.12;100.00;100176.31;6261711;28;20124;-83
2021/09/04 04:14:34;;;;;;;8.05;6.05;;;;;;;13.01;100.00;100179.69;6296045;28;20072;-83
2021/09/04 04:17:35;;;;;;;7.68;5.40;;;;;;;12.92;100.00;100176.84;6245573;28;20041;-83
2021/09/04 04:20:36;;;;;;;10.00;5.57;;;;;;;12.94;100.00;100182.81;6245291;28;20446;-82
2021/09/04 04:23:37;;;;;;;8.32;5.95;;;;;;;13.02;100.00;100183.97;6245225;28;20036;-83
2021/09/04 04:26:38;;;;;;;10.00;5.68;;;;;;;12.85;100.00;100195.59;6278045;28;20041;-83
2021/09/04 04:29:38;;;;;;;10.95;5.80;;;;;;;12.82;100.00;100192.34;6277823;28;20131;-83
2021/09/04 04:32:39;;;;;;;10.80;6.13;;;;;;;12.77;100.00;100191.84;6245077;28;20048;-84
2021/09/04 04:35:40;;;;;;;9.43;5.97;;;;;;;12.74;100.00;100192.84;6244998;28;20571;-83
2021/09/04 04:38:41;;;;;;;9.48;6.32;;;;;;;12.66;100.00;100197.78;6261356;28;20048;-83
2021/09/04 04:41:41;;;;;;;12.30;6.50;;;;;;;12.61;100.00;100192.84;6277587;28;20365;-84
2021/09/04 04:44:42;;;;;;;10.73;6.07;;;;;;;12.50;100.00;100193.59;6277711;28;20047;-84
2021/09/04 04:47:43;;;;;;;9.25;5.80;;;;;;;12.50;100.00;100198.00;6244727;28;20055;-84
2021/09/04 04:50:43;;;;;;;8.85;5.85;;;;;;;12.47;100.00;100206.84;6277526;28;20131;-84
2021/09/04 04:53:44;;;;;;;11.10;5.97;;;;;;;12.48;100.00;100203.31;6244409;28;20415;-84
2021/09/04 04:56:45;;;;;;;8.75;5.78;;;;;;;12.45;100.00;100200.88;6261022;28;20041;-83
2021/09/04 04:59:45;;;;;;;9.82;5.70;;;;;;;12.48;100.00;100203.31;6244485;28;20064;-84
2021/09/04 05:02:46;;;;;;;11.32;6.13;;;;;;;12.48;100.00;100199.88;6261003;28;20044;-83
2021/09/04 05:05:47;;;;;;;12.77;6.20;;;;;;;12.59;100.00;100196.53;6260780;28;20044;-83
2021/09/04 05:08:48;;;;;;;10.63;6.28;;;;;;;12.70;100.00;100196.63;6260672;28;20375;-83
2021/09/04 05:11:48;;;;;;;9.95;6.43;;;;;;;12.80;100.00;100184.59;6260777;28;20510;-83
2021/09/04 05:14:49;;;;;;;8.85;5.40;;;;;;;12.84;100.00;100193.09;6260566;28;20090;-82
2021/09/04 05:17:50;;;;;;;9.38;5.95;;;;;;;12.86;100.00;100192.03;6277351;28;20037;-83
2021/09/04 05:20:52;;;;;;;14.32;6.05;;;;;;;12.99;100.00;100191.19;6244587;28;20045;-83
2021/09/04 05:23:53;;;;;;;10.30;5.63;;;;;;;13.03;100.00;100196.13;6282736;28;20048;-82
2021/09/04 05:26:54;;;;;;;9.57;6.22;;;;;;;13.05;100.00;100194.25;6282159;28;20126;-83
2021/09/04 05:29:54;;;;;;;11.60;5.75;;;;;;;13.14;100.00;100189.28;6265633;28;20413;-84
2021/09/04 05:32:55;;;;;;;8.38;5.55;;;;;;;13.16;100.00;100198.72;6265696;28;20381;-83
2021/09/04 05:35:56;;;;;;;12.95;6.20;;;;;;;13.32;100.00;100203.75;6248985;28;20040;-83
2021/09/04 05:38:57;;;;;;;10.48;6.30;;;;;;;13.40;100.00;100203.22;6282165;28;20046;-84
2021/09/04 05:41:57;;;;;;;8.00;5.85;;;;;;;13.46;100.00;100195.75;6240387;28;20044;-82
2021/09/04 05:44:58;;;;;;;10.48;6.30;;;;;;;13.55;100.00;100199.53;6257189;28;20041;-81
2021/09/04 05:47:59;;;;;;;11.07;6.47;;;;;;;13.68;100.00;100202.94;6257053;28;20082;-83
2021/09/04 05:51:00;;;;;;;11.48;6.57;;;;;;;13.70;100.00;100198.44;6290045;28;20045;-82
2021/09/04 05:54:01;;;;;;;11.50;6.47;;;;;;;13.70;100.00;100195.81;6256995;28;20445;-82
2021/09/04 05:57:02;;;;;;;18.23;6.65;;;;;;;13.75;100.00;100189.38;6256873;28;20051;-83
2021/09/04 06:00:04;;;;;;;13.75;6.40;;;;;;;13.80;100.00;100197.78;6246354;28;20158;-82
2021/09/04 06:03:05;;;;;;;9.00;6.53;;;;;;;13.91;100.00;100197.81;6265065;28;20040;-83
2021/09/04 06:06:05;;;;;;;9.82;6.38;;;;;;;14.04;100.00;100203.88;6281402;28;20449;-82
2021/09/04 06:09:06;;;;;;;13.63;6.65;;;;;;;14.17;99.14;100201.16;6281675;28;20047;-83
2021/09/04 06:12:07;;;;;;;13.35;6.60;;;;;;;14.25;100.00;100205.88;6264623;28;20070;-83
2021/09/04 06:15:08;;;;;;;11.10;6.43;;;;;;;14.39;98.84;100210.94;6298035;28;20056;-83
2021/09/04 06:18:10;;;;;;;14.13;6.68;;;;;;;14.45;97.30;100205.19;6265349;28;20427;-83
2021/09/04 06:21:11;;;;;;;12.15;7.03;;;;;;;14.62;95.25;100208.38;6299256;28;20483;-83
2021/09/04 06:24:12;;;;;;;9.65;6.10;;;;;;;14.70;96.85;100214.75;6298207;28;20048;-83
2021/09/04 06:27:13;;;;;;;10.93;6.55;;;;;;;14.87;91.76;100213.44;6264845;28;20044;-84
2021/09/04 06:30:14;;;;;;;11.20;6.18;;;;;;;14.96;92.55;100217.16;6281247;28;20040;-83
2021/09/04 06:33:15;;;;;;;9.55;5.70;;;;;;;15.06;90.91;100215.50;6297804;28;20041;-84
2021/09/04 06:36:15;;;;;;;14.80;6.03;;;;;;;15.27;88.46;100222.66;6294534;28;20044;-83
2021/09/04 06:39:16;;;;;;;9.45;5.85;;;;;;;15.44;89.11;100213.44;6277712;28;20048;-83
2021/09/04 06:42:17;;;;;;;10.82;5.22;;;;;;;15.64;83.35;100219.78;6286409;28;20424;-84
2021/09/04 06:45:19;;;;;;;11.27;6.15;;;;;;;15.75;82.93;100214.53;6272861;28;20060;-84
2021/09/04 06:48:20;;;;;;;9.27;5.57;;;;;;;15.87;81.86;100212.69;6239836;28;20052;-83
2021/09/04 06:51:21;;;;;;;8.35;5.47;;;;;;;15.94;82.04;100213.88;6272476;28;20091;-83
2021/09/04 06:54:24;;;;;;;10.82;5.63;;;;;;;16.06;82.03;100215.53;6224422;28;20060;-84
2021/09/04 06:57:24;;;;;;;9.13;5.65;;;;;;;16.24;85.23;100217.59;6268377;28;20041;-84
2021/09/04 07:00:25;;;;;;;11.35;5.45;;;;;;;16.40;82.37;100222.44;6289990;28;20096;-84
2021/09/04 07:03:26;;;;;;;10.27;5.43;;;;;;;16.59;81.13;100224.38;6273708;28;20041;-85
2021/09/04 07:06:27;;;;;;;11.10;5.85;;;;;;;16.72;78.36;100225.88;6290438;28;20037;-84
2021/09/04 07:09:27;;;;;;;11.38;4.82;;;;;;;16.92;76.07;100231.25;6274762;28;20041;-86
2021/09/04 07:12:28;;;;;;;9.05;5.28;;;;;;;17.01;75.13;100227.03;6257142;28;20051;-84
2021/09/04 07:15:29;;;;;;;8.93;5.07;;;;;;;17.19;75.46;100227.25;6273584;28;20756;-84
2021/09/04 07:18:30;;;;;;;8.10;4.63;;;;;;;17.36;73.29;100218.72;6273461;28;20095;-87
2021/09/04 07:21:31;;;;;;;6.57;4.82;;;;;;;17.54;72.95;100218.91;6257307;28;20049;-86
2021/09/04 07:24:31;;;;;;;7.22;5.00;;;;;;;17.68;71.14;100220.34;6290426;28;20576;-84
2021/09/04 07:27:32;;;;;;;8.40;5.38;;;;;;;17.86;70.33;100225.81;6256720;28;20041;-84
2021/09/04 07:30:34;;;;;;;12.80;4.88;;;;;;;18.03;72.00;100233.06;6278468;28;20037;-84
2021/09/04 07:33:35;;;;;;;10.57;4.82;;;;;;;18.23;69.10;100233.91;6271980;28;20559;-83
2021/09/04 07:36:35;;;;;;;8.30;4.60;;;;;;;18.39;69.88;100235.16;6255625;28;20040;-84
2021/09/04 07:39:36;;;;;;;8.80;4.97;;;;;;;18.57;67.45;100230.81;6275545;28;20056;-85
2021/09/04 07:42:37;;;;;;;13.50;4.55;;;;;;;18.65;72.37;100238.06;6278742;28;20518;-85
2021/09/04 07:45:38;;;;;;;5.97;4.18;;;;;;;18.82;66.90;100244.47;6281511;28;20486;-86
2021/09/04 07:48:39;;;;;;;9.07;4.45;;;;;;;18.96;69.42;100246.66;6272255;28;20037;-84
2021/09/04 07:51:40;;;;;;;5.63;3.97;;;;;;;19.12;68.41;100252.16;6255023;28;20044;-85
2021/09/04 07:54:41;;;;;;;8.63;4.30;;;;;;;19.37;64.85;100251.69;6278962;28;20040;-82
2021/09/04 07:57:41;;;;;;;7.23;4.27;;;;;;;19.50;66.24;100249.53;6295298;28;20546;-85
2021/09/04 08:00:42;;;;;;;8.25;4.35;;;;;;;19.69;62.92;100248.59;6290983;28;20492;-85
2021/09/04 08:03:43;;;;;;;5.90;4.13;;;;;;;19.79;62.81;100246.78;6237449;28;20044;-85
2021/09/04 08:06:44;;;;;;;12.03;4.70;;;;;;;19.96;65.23;100252.25;6270678;28;20041;-86
2021/09/04 08:09:44;;;;;;;9.37;4.27;;;;;;;20.06;60.69;100247.72;6253857;28;20041;-85
2021/09/04 08:12:45;;;;;;;7.50;4.17;;;;;;;20.14;64.48;100255.75;6237366;28;20045;-84
2021/09/04 08:15:48;;;;;;;5.83;3.70;;;;;;;20.26;61.96;100253.69;6275339;28;20044;-82
2021/09/04 08:18:49;;;;;;;8.65;4.18;;;;;;;20.45;60.61;100248.25;6278517;28;20037;-85
2021/09/04 08:21:50;;;;;;;10.83;3.80;;;;;;;20.68;60.87;100251.25;6295022;28;20121;-87
2021/09/04 08:24:50;;;;;;;9.23;3.80;;;;;;;20.89;58.14;100245.59;6294784;28;20050;-84
2021/09/04 08:27:51;;;;;;;4.97;3.83;;;;;;;21.01;59.14;100253.31;6261675;28;20048;-84
2021/09/04 08:30:52;;;;;;;7.83;4.17;;;;;;;21.21;57.16;100251.25;6311323;28;20036;-83
2021/09/04 08:33:53;;;;;;;6.50;3.97;;;;;;;21.31;55.43;100242.22;6278102;28;20043;-84
2021/09/04 08:36:53;;;;;;;6.47;4.13;;;;;;;21.38;57.13;100245.06;6278038;28;20139;-83
2021/09/04 08:39:54;;;;;;;8.27;4.87;;;;;;;21.51;55.85;100248.09;6295351;28;20041;-84
2021/09/04 08:42:55;;;;;;;9.63;4.93;;;;;;;21.66;56.42;100244.84;6302697;28;20047;-84
2021/09/04 08:45:57;;;;;;;7.63;4.50;;;;;;;21.78;53.99;100237.41;6302684;28;20055;-84
2021/09/04 08:49:02;;;;;;;7.82;4.38;;;;;;;21.89;55.15;100242.44;6302351;28;20040;-84
2021/09/04 08:52:07;;;;;;;9.88;3.97;;;;;;;22.01;54.02;100245.59;6301823;28;20042;-85
2021/09/04 08:55:08;;;;;;;6.80;3.95;;;;;;;22.12;53.47;100238.16;6272656;28;20060;-84
2021/09/04 08:58:08;;;;;;;5.93;3.67;;;;;;;22.07;50.10;100237.84;6260474;28;20121;-83
2021/09/04 09:01:44;;;;;;;8.23;3.80;;;;;;;22.27;52.77;100240.19;6269812;28;20427;-85
2021/09/04 09:04:59;;;;;;;10.32;3.67;;;;;;;22.49;51.98;100236.06;6307864;28;20052;-84
2021/09/04 09:08:00;;;;;;;10.35;4.30;;;;;;;22.73;52.36;100237.84;6277730;28;20048;-84
2021/09/04 09:11:02;;;;;;;10.37;4.03;;;;;;;22.83;51.16;100235.00;6260777;28;20060;-82
2021/09/04 09:14:02;;;;;;;;;;;;;;;22.89;53.92;100237.00;6281161;28;20121;-85
2021/09/04 09:17:03;;;;;;;5.80;3.60;;;;;;;22.93;51.18;100228.50;6278106;28;20381;-85
2021/09/04 09:20:06;;;;;;;8.87;4.00;;;;;;;23.16;52.11;100229.66;6292288;28;20487;-85
2021/09/04 09:23:15;;;;;;;7.80;4.38;;;;;;;23.32;50.15;100221.59;6302273;28;20064;-85
2021/09/04 09:26:16;;;;;;;7.25;4.45;;;;;;;23.20;50.48;100215.00;6302233;28;20052;-84
2021/09/04 09:29:21;;;;;;;12.97;3.67;;;;;;;23.50;50.21;100214.22;6260808;28;20620;-85
2021/09/04 09:32:22;;;;;;;12.90;4.30;;;;;;;23.78;51.65;100205.75;6294947;28;20044;-83
2021/09/04 09:35:41;;;;;;;10.37;3.93;;;;;;;24.10;49.53;100212.72;6260486;28;20041;-82
2021/09/04 09:38:42;;;;;;;11.75;4.13;;;;;;;24.13;47.59;100204.38;6294794;28;20629;-83
2021/09/04 09:41:50;;;;;;;11.02;3.40;;;;;;;24.23;45.44;100209.44;6243767;28;20056;-82
2021/09/04 09:44:55;;;;;;;6.35;3.35;;;;;;;24.09;43.44;100205.72;6293574;28;20364;-82
2021/09/04 09:47:55;;;;;;;6.07;3.60;;;;;;;24.16;45.26;100199.69;6306336;28;20040;-82
2021/09/04 09:50:59;;;;;;;4.43;3.50;;;;;;;24.29;46.48;100202.56;6285247;28;20044;-82
2021/09/04 09:54:00;;;;;;;11.20;3.38;;;;;;;23.91;44.57;100202.53;6301762;28;20279;-81
2021/09/04 09:57:04;;;;;;;10.02;3.58;;;;;;;23.96;45.89;100194.00;6285153;28;20048;-83
2021/09/04 10:00:06;;;;;;;6.05;3.50;;;;;;;24.19;42.95;100199.31;6301727;28;20044;-82
2021/09/04 10:03:09;;;;;;;12.18;3.83;;;;;;;24.02;43.34;100194.09;6285189;28;20101;-83
2021/09/04 10:06:11;;;;;;;7.70;3.28;;;;;;;24.38;42.20;100190.84;6285302;28;20433;-83
2021/09/04 10:09:12;;;;;;;6.93;3.15;;;;;;;24.55;44.91;100188.06;6264000;28;20098;-82
2021/09/04 10:12:13;;;;;;;7.22;3.50;;;;;;;24.74;42.72;100191.00;6281235;28;20048;-83
2021/09/04 10:15:14;;;;;;;;;;;;;;;25.17;44.52;100179.69;6281662;28;20040;-83
2021/09/04 10:18:15;;;;;;;5.60;3.10;;;;;;;25.03;40.33;100180.53;6281175;28;19920;-82
2021/09/04 10:21:16;;;;;;;4.35;3.13;;;;;;;25.57;43.28;100174.03;6281109;28;20132;-83
2021/09/04 10:24:17;;;;;;;4.67;3.23;;;;;;;25.82;39.69;100172.66;6264516;28;20040;-81
2021/09/04 10:27:34;;;;;;;5.57;3.70;;;;;;;26.08;41.21;100168.59;6248041;28;20119;-83
2021/09/04 10:30:38;;;;;;;7.63;3.45;;;;;;;26.26;41.38;100179.66;6280656;28;20043;-83
2021/09/04 10:33:39;;;;;;;5.35;2.92;;;;;;;26.21;41.48;100178.59;6280763;28;20041;-83
2021/09/04 10:37:00;;;;;;;5.57;3.40;;;;;;;25.85;41.26;100176.81;6280834;28;20435;-83
2021/09/04 10:40:08;;;;;;;7.15;2.80;;;;;;;25.91;38.23;100178.75;6280322;28;20045;-82
2021/09/04 10:43:09;;;;;;;3.95;3.05;;;;;;;26.00;38.40;100177.59;6281710;28;20044;-81
2021/09/04 10:46:15;;;;;;;3.85;3.22;;;;;;;25.87;39.74;100174.75;6280717;28;20040;-82
2021/09/04 10:49:56;;;;;;;5.95;3.55;;;;;;;25.42;38.90;100182.09;6280526;28;20473;-82
2021/09/04 10:53:16;;;;;;;4.65;3.45;;;;;;;24.59;39.75;100194.69;6280469;28;20120;-81
2021/09/04 10:56:31;;;;;;;8.80;3.55;;;;;;;24.37;40.64;100193.69;6280205;28;20044;-83
2021/09/04 10:59:57;;;;;;;6.28;3.08;;;;;;;24.90;39.83;100199.88;6280245;28;20044;-81
2021/09/04 11:02:58;;;;;;;4.93;3.05;;;;;;;25.24;38.89;100195.81;6280034;28;20044;-82
2021/09/04 11:06:03;;;;;;;7.10;3.10;;;;;;;24.68;43.01;100197.06;6280575;28;20040;-89
2021/09/04 11:09:04;;;;;;;5.22;3.13;;;;;;;24.04;42.21;100199.28;6280706;28;20044;-83
2021/09/04 11:12:13;;;;;;;4.97;3.25;;;;;;;23.45;44.84;100189.94;6280887;28;20526;-88
2021/09/04 11:15:24;;;;;;;5.78;3.08;;;;;;;23.17;44.59;100194.06;6281582;28;20090;-89
2021/09/04 11:18:44;;;;;;;8.23;3.30;;;;;;;23.12;46.10;100194.56;6298346;28;20040;-89
2021/09/04 11:21:49;;;;;;;6.10;3.20;;;;;;;23.04;48.29;100191.94;6297551;28;20067;-82
2021/09/04 11:24:54;;;;;;;9.80;3.00;;;;;;;22.93;49.49;100183.28;6279554;28;20044;-82
2021/09/04 11:27:55;;;;;;;5.57;3.33;;;;;;;22.88;51.95;100195.44;6279494;28;20047;-82
2021/09/04 11:30:57;;;;;;;3.60;3.13;;;;;;;23.32;44.96;100195.81;6262931;28;20437;-82
2021/09/04 11:33:57;;;;;;;5.45;3.00;;;;;;;24.02;43.28;100191.44;6279196;28;20036;-82
2021/09/04 11:36:58;;;;;;;4.70;3.00;;;;;;;24.60;45.08;100197.16;6246396;28;20494;-83
2021/09/04 11:40:03;;;;;;;5.80;2.87;;;;;;;25.26;42.40;100188.44;6279085;28;20487;-84
2021/09/04 11:43:05;;;;;;;4.57;2.60;;;;;;;25.57;37.55;100184.72;6279190;28;20292;-83
2021/09/04 11:46:06;;;;;;;7.05;2.92;;;;;;;24.82;39.32;100192.78;6279244;28;20501;-85
2021/09/04 11:49:07;;;;;;;5.20;2.83;;;;;;;24.20;42.48;100188.50;6279129;28;20059;-85
2021/09/04 11:52:18;;;;;;;5.77;2.60;;;;;;;23.88;44.50;100194.88;6246169;28;20495;-85
2021/09/04 11:55:20;;;;;;;8.73;2.63;;;;;;;23.71;43.41;100183.47;6296926;28;20047;-85
2021/09/04 11:58:21;;;;;;;4.88;2.63;;;;;;;23.44;45.43;100172.31;6279139;28;20456;-85
2021/09/04 12:01:22;;;;;;;3.47;2.70;;;;;;;23.31;46.69;100174.72;6262226;28;20054;-85
2021/09/04 12:04:23;;;;;;;4.20;3.00;;;;;;;24.19;49.15;100172.66;6278884;28;20040;-85
2021/09/04 12:07:25;;;;;;;4.25;2.83;;;;;;;24.13;41.82;100171.53;6245712;28;20652;-84
2021/09/04 12:10:28;;;;;;;8.63;3.00;;;;;;;24.32;41.04;100176.38;6278653;28;20044;-84
2021/09/04 12:13:30;;;;;;;6.00;2.97;;;;;;;24.49;39.79;100169.09;6296858;28;20666;-84
2021/09/04 12:16:31;;;;;;;5.85;2.40;;;;;;;24.76;43.50;100174.81;6286475;28;20252;-85
2021/09/04 12:19:39;;;;;;;4.82;2.78;;;;;;;24.11;40.44;100168.22;6303146;28;20127;-83
2021/09/04 12:22:39;;;;;;;4.53;3.05;;;;;;;23.71;43.12;100167.50;6270263;28;20085;-85
2021/09/04 12:25:40;;;;;;;6.53;2.90;;;;;;;23.76;42.94;100164.28;6261500;28;20048;-84
2021/09/04 12:28:42;;;;;;;7.13;3.25;;;;;;;24.30;39.62;100164.25;6278403;28;20066;-84
2021/09/04 12:31:47;;;;;;;4.88;3.05;;;;;;;24.56;40.67;100161.19;6277795;28;20094;-83
2021/09/04 12:34:56;;;;;;;4.50;3.10;;;;;;;24.60;40.95;100150.97;6294542;28;20048;-84
2021/09/04 12:37:57;;;;;;;6.60;3.00;;;;;;;24.87;44.70;100137.03;6294549;28;20037;-84
2021/09/04 12:41:06;;;;;;;6.43;2.75;;;;;;;25.30;43.31;100136.34;6244797;28;20510;-84
2021/09/04 12:44:10;;;;;;;4.07;2.60;;;;;;;25.40;35.85;100138.72;6277828;28;20033;-84
2021/09/04 12:47:12;;;;;;;6.40;2.80;;;;;;;25.23;38.36;100128.25;6294340;28;20413;-85
2021/09/04 12:50:24;;;;;;;10.45;2.85;;;;;;;25.20;38.44;100139.25;6277551;28;20064;-83
2021/09/04 12:53:25;;;;;;;8.73;3.20;;;;;;;25.48;41.54;100130.59;6294318;28;20043;-86
2021/09/04 12:56:34;;;;;;;6.73;2.80;;;;;;;25.50;39.56;100129.38;6293991;28;20033;-84
2021/09/04 12:59:45;;;;;;;3.63;2.40;;;;;;;25.56;36.58;100133.13;6277979;28;20285;-84
2021/09/04 13:02:46;;;;;;;3.55;2.58;;;;;;;25.87;37.25;100135.50;6294578;28;20045;-83
2021/09/04 13:05:47;;;;;;;4.07;2.70;;;;;;;25.90;36.96;100080.84;6284676;28;20036;-87
2021/09/04 13:08:47;;;;;;;7.57;2.87;;;;;;;25.59;38.63;100123.91;6286198;28;20287;-88
2021/09/04 13:11:48;;;;;;;3.85;2.78;;;;;;;25.57;40.10;100124.09;6286176;28;20040;-86
2021/09/04 13:14:49;;;;;;;4.10;2.90;;;;;;;25.68;39.04;100122.78;6302189;28;20040;-85
2021/09/04 13:17:50;;;;;;;4.15;3.03;;;;;;;25.83;37.33;100120.03;6260865;28;20143;-84
2021/09/04 13:20:51;;;;;;;4.22;2.50;;;;;;;25.71;37.66;100123.22;6277478;28;20075;-85
2021/09/04 13:23:51;;;;;;;4.97;2.85;;;;;;;25.86;37.70;100128.50;6260535;28;20051;-85
2021/09/04 13:26:53;;;;;;;5.05;2.75;;;;;;;25.79;34.82;100121.44;6293928;28;20048;-84
2021/09/04 13:29:53;;;;;;;;;;;;;;;25.66;34.70;100119.47;6277916;28;20045;-89
2021/09/04 13:32:54;;;;;;;11.50;2.80;;;;;;;25.50;34.29;100116.00;6277249;28;20291;-89
2021/09/04 13:35:55;;;;;;;5.17;2.57;;;;;;;25.18;36.79;100119.09;6244388;28;20519;-90
2021/09/04 13:38:56;;;;;;;6.20;2.72;;;;;;;25.06;37.62;100116.09;6260479;28;20320;-83
2021/09/04 13:41:57;;;;;;;6.77;2.83;;;;;;;25.02;37.66;100114.81;6277360;28;20052;-82
2021/09/04 13:44:58;;;;;;;4.00;2.87;;;;;;;25.05;38.07;100112.59;6298487;28;20279;-84
2021/09/04 13:47:58;;;;;;;6.57;2.92;;;;;;;24.90;37.69;100119.81;6281926;28;20675;-82
2021/09/04 13:50:59;;;;;;;6.10;3.07;;;;;;;24.66;37.43;100110.25;6248913;28;20036;-85
2021/09/04 13:54:02;;;;;;;4.63;2.67;;;;;;;24.60;37.92;100122.47;6282078;28;20308;-83
2021/09/04 13:57:03;;;;;;;4.82;2.53;;;;;;;24.66;38.19;100115.56;6281667;28;20052;-85
2021/09/04 14:00:05;;;;;;;3.13;2.37;;;;;;;24.59;37.15;100112.81;6281592;28;20098;-85